Список аэропортов
Фактическая погода:

24 октября, 12:00
Температура: +13°C (+13.0*)
Ветер: перем. 1 м/с
Давление: *770 мм
Без существ. явл.
Время (МСК)Темп. СВетерВлажностьДавлениеОблачностьОсадки
09:00+7С, 2 м/с65%1028 гПас прояснениями
10:00+7С, 2 м/с68%1028 гПас прояснениями
11:00+9С, 2 м/с58%1028 гПаоблачно
12:00+13СВ, 3 м/с42%1027 гПаоблачно
13:00+17СВ, 2 м/с32%1026 гПас прояснениями
14:00+19СВ, 1 м/с26%1025 гПас прояснениями
15:00+21Штиль 24%1024 гПаясно
16:00+22ЮЗ, 1 м/с23%1024 гПаясно
17:00+23ЮЗ, 1 м/с22%1023 гПаясно
18:00+23Ю, 1 м/с22%1023 гПаясно
19:00+23Штиль 29%1023 гПаясно
20:00+20Штиль 38%1024 гПаясно
21:00+17СЗ, 1 м/с41%1024 гПаясно
22:00+16С, 2 м/с40%1024 гПаясно
23:00+15С, 2 м/с44%1025 гПаясно
25 октября
00:00+12С, 2 м/с54%1026 гПаясно
01:00+11СВ, 2 м/с61%1026 гПаясно
02:00+10С, 2 м/с66%1026 гПаясно
03:00+9С, 2 м/с69%1026 гПаясно
04:00+9С, 2 м/с71%1027 гПаясно
05:00+8С, 2 м/с72%1027 гПаясно
06:00+8С, 2 м/с73%1027 гПаясно
07:00+8С, 2 м/с75%1027 гПаясно
08:00+7С, 2 м/с77%1027 гПаясно
09:00+7СВ, 2 м/с81%1027 гПаясно
10:00+6С, 2 м/с85%1028 гПаясно
11:00+8С, 2 м/с75%1027 гПас прояснениями
12:00+12СВ, 2 м/с57%1026 гПаоблачно
13:00+16СВ, 1 м/с48%1026 гПаоблачно
14:00+18СВ, 1 м/с42%1025 гПас прояснениями
15:00+20В, 1 м/с36%1024 гПас прояснениями
16:00+22ЮВ, 1 м/с32%1024 гПас прояснениями
17:00+23Ю, 1 м/с30%1024 гПаоблачно
18:00+24Ю, 1 м/с29%1023 гПас прояснениями
19:00+23Ю, 1 м/с32%1024 гПас прояснениями
20:00+21ЮЗ, 1 м/с40%1024 гПас прояснениями
21:00+18З, 1 м/с49%1025 гПас прояснениями
22:00+16СЗ, 1 м/с52%1026 гПас прояснениями
23:00+15С, 2 м/с56%1026 гПаоблачно
26 октября
00:00+13С, 2 м/с65%1027 гПаоблачно
01:00+11С, 2 м/с72%1027 гПас прояснениями
02:00+10С, 2 м/с76%1028 гПас прояснениями
03:00+10С, 2 м/с78%1028 гПас прояснениями
04:00+9С, 2 м/с79%1028 гПас прояснениями
05:00+8С, 2 м/с80%1028 гПас прояснениями
06:00+8С, 2 м/с82%1028 гПас прояснениями
07:00+8С, 2 м/с84%1029 гПаоблачно
08:00+7С, 2 м/с87%1029 гПас прояснениями
09:00+7С, 2 м/с91%1030 гПас прояснениями